createdAt,value
2023-10-13T00:02:02.422Z,96666.38
2023-10-13T00:04:37.679Z,96682.91
2023-10-13T00:07:16.119Z,96654.22
2023-10-13T00:09:44.526Z,96599.94
2023-10-13T00:12:15.436Z,96614.19
2023-10-13T00:14:47.055Z,96638.22
2023-10-13T00:17:21.488Z,96640.84
2023-10-13T00:19:53.736Z,96623.50
2023-10-13T00:22:24.200Z,96659.00
2023-10-13T00:24:59.614Z,96621.94
2023-10-13T00:27:34.453Z,96568.56
2023-10-13T00:30:23.197Z,96637.72
2023-10-13T00:32:56.676Z,96580.88
2023-10-13T00:35:30.091Z,96626.63
2023-10-13T00:38:00.297Z,96663.50
2023-10-13T00:40:45.211Z,96567.38
2023-10-13T00:43:33.253Z,96626.75
2023-10-13T00:46:13.946Z,96561.22
2023-10-13T00:48:44.630Z,96589.50
2023-10-13T00:51:23.723Z,96602.44
2023-10-13T00:53:52.054Z,96633.34
2023-10-13T00:56:22.372Z,96617.63
2023-10-13T00:58:52.900Z,96629.50
2023-10-13T01:01:22.938Z,96585.63
2023-10-13T01:03:56.602Z,96588.38
2023-10-13T01:06:29.499Z,96554.91
2023-10-13T01:09:01.250Z,96611.81
2023-10-13T01:11:31.029Z,96602.31
2023-10-13T01:14:04.010Z,96632.75
2023-10-13T01:16:32.595Z,96586.16
2023-10-13T01:19:01.046Z,96599.91
2023-10-13T01:21:30.421Z,96613.47
2023-10-13T01:23:59.152Z,96677.09
2023-10-13T01:26:27.672Z,96582.19
2023-10-13T01:28:59.110Z,96597.69
2023-10-13T01:31:28.833Z,96619.94
2023-10-13T01:33:59.992Z,96596.50
2023-10-13T01:36:36.717Z,96652.56
2023-10-13T01:39:06.543Z,96626.41
2023-10-13T01:41:38.523Z,96566.28
2023-10-13T01:44:06.478Z,96602.28
2023-10-13T01:46:38.329Z,96567.81
2023-10-13T01:49:05.884Z,96590.41
2023-10-13T01:51:34.462Z,96581.47
2023-10-13T01:54:04.291Z,96613.63
2023-10-13T01:56:34.286Z,96591.84
2023-10-13T01:59:01.621Z,96556.84
2023-10-13T02:01:36.103Z,96582.56
2023-10-13T02:04:07.733Z,96599.31
2023-10-13T02:06:38.307Z,96531.53
2023-10-13T02:09:14.531Z,96581.53
2023-10-13T02:11:47.080Z,96604.09
2023-10-13T02:14:17.880Z,96565.19
2023-10-13T02:16:48.643Z,96577.63
2023-10-13T02:19:18.720Z,96569.81
2023-10-13T02:21:46.624Z,96576.34
2023-10-13T02:24:19.975Z,96573.88
2023-10-13T02:26:48.654Z,96566.88
2023-10-13T02:29:19.285Z,96573.28
2023-10-13T02:31:55.713Z,96582.69
2023-10-13T02:34:24.798Z,96558.25
2023-10-13T02:36:52.955Z,96561.41
2023-10-13T02:39:27.375Z,96357.25
2023-10-13T02:41:57.415Z,96601.59
2023-10-13T02:44:31.907Z,96563.31
2023-10-13T02:47:00.337Z,96525.63
2023-10-13T02:49:32.519Z,96547.63
2023-10-13T02:52:06.059Z,96561.75
2023-10-13T02:54:40.781Z,96480.97
2023-10-13T02:57:09.607Z,96536.78
2023-10-13T02:59:41.693Z,96542.69
2023-10-13T03:02:19.104Z,96479.31
2023-10-13T03:04:50.178Z,96522.88
2023-10-13T03:07:24.343Z,96490.59
2023-10-13T03:09:53.754Z,96552.63
2023-10-13T03:12:23.024Z,96510.00
2023-10-13T03:14:59.559Z,96538.72
2023-10-13T03:17:35.312Z,96546.03
2023-10-13T03:20:06.533Z,96543.69
2023-10-13T03:22:34.469Z,96559.06
2023-10-13T03:25:09.548Z,96528.66
2023-10-13T03:27:41.882Z,96521.06
2023-10-13T03:30:16.046Z,96519.53
2023-10-13T03:32:47.328Z,96522.41
2023-10-13T03:35:25.012Z,96500.38
2023-10-13T03:37:53.929Z,96388.66
2023-10-13T03:40:36.469Z,96530.00
2023-10-13T03:43:07.456Z,96544.53
2023-10-13T03:45:40.395Z,96525.28
2023-10-13T03:48:22.630Z,96512.41
2023-10-13T03:51:03.007Z,96515.22
2023-10-13T03:53:34.738Z,96469.66
2023-10-13T03:56:13.337Z,96526.09
2023-10-13T03:58:47.722Z,96513.94
2023-10-13T04:01:18.377Z,96519.94
2023-10-13T04:04:04.825Z,96491.06
2023-10-13T04:07:14.413Z,96460.56
2023-10-13T04:10:00.366Z,96542.25
2023-10-13T04:12:42.627Z,96528.34
2023-10-13T04:15:24.685Z,96515.91
2023-10-13T04:17:53.263Z,96445.63
2023-10-13T04:20:39.253Z,96509.09
2023-10-13T04:23:24.710Z,96459.03
2023-10-13T04:26:22.232Z,96525.97
2023-10-13T04:28:53.083Z,96520.28
2023-10-13T04:31:42.750Z,96543.69
2023-10-13T04:34:19.489Z,96491.31
2023-10-13T04:36:47.592Z,96533.00
2023-10-13T04:39:30.596Z,96526.91
2023-10-13T04:41:59.260Z,96494.75
2023-10-13T04:44:45.521Z,96503.91
2023-10-13T04:47:22.867Z,96459.03
2023-10-13T04:49:54.451Z,96507.44
2023-10-13T04:53:02.183Z,96522.63
2023-10-13T04:56:00.749Z,96444.94
2023-10-13T04:59:03.135Z,96507.00
2023-10-13T05:01:45.430Z,96489.72
2023-10-13T05:04:32.003Z,96437.69
2023-10-13T05:07:17.931Z,96504.78
2023-10-13T05:10:04.484Z,96472.09
2023-10-13T05:12:51.260Z,96443.41
2023-10-13T05:15:38.209Z,96459.81
2023-10-13T05:18:24.557Z,96454.63
2023-10-13T05:21:15.171Z,96474.75
2023-10-13T05:24:01.432Z,96479.66
2023-10-13T05:26:48.117Z,96485.59
2023-10-13T05:29:34.491Z,96496.53
2023-10-13T05:32:25.840Z,96447.16
2023-10-13T05:35:17.253Z,96430.81
2023-10-13T05:38:04.666Z,96509.97
2023-10-13T05:40:51.155Z,96494.22
2023-10-13T05:43:37.269Z,96493.66
2023-10-13T05:46:50.509Z,96470.63
2023-10-13T05:49:41.782Z,96494.09
2023-10-13T05:52:20.335Z,96503.38
2023-10-13T05:55:08.565Z,96476.44
2023-10-13T05:57:55.914Z,96479.63
2023-10-13T06:00:42.398Z,96488.50
2023-10-13T06:03:28.679Z,96530.34
2023-10-13T06:06:15.361Z,96456.88
2023-10-13T06:09:01.649Z,96493.47
2023-10-13T06:11:57.442Z,96342.47
2023-10-13T06:14:43.181Z,96473.94
2023-10-13T06:17:29.570Z,96487.38
2023-10-13T06:20:15.644Z,96459.72
2023-10-13T06:23:01.565Z,96470.28
2023-10-13T06:25:48.215Z,96483.72
2023-10-13T06:28:35.474Z,96531.13
2023-10-13T06:31:07.321Z,96492.94
2023-10-13T06:33:36.525Z,96463.16
2023-10-13T06:36:10.465Z,96454.88
2023-10-13T06:38:39.501Z,96478.50
2023-10-13T06:41:09.698Z,96473.22
2023-10-13T06:43:41.688Z,96512.75
2023-10-13T06:46:15.957Z,96506.91
2023-10-13T06:48:44.997Z,96536.06
2023-10-13T06:51:22.561Z,96483.28
2023-10-13T06:53:57.704Z,96503.16
2023-10-13T06:56:30.344Z,96517.53
2023-10-13T06:59:03.845Z,96539.00
2023-10-13T07:01:39.718Z,96370.59
2023-10-13T07:04:16.322Z,96504.84
2023-10-13T07:06:49.389Z,96503.22
2023-10-13T07:09:40.492Z,96470.75
2023-10-13T07:12:17.773Z,96420.75
2023-10-13T07:14:56.228Z,96528.44
2023-10-13T07:17:26.038Z,96476.31
2023-10-13T07:19:57.103Z,96475.28
2023-10-13T07:22:27.057Z,96462.94
2023-10-13T07:24:59.400Z,96478.06
2023-10-13T07:27:26.814Z,96489.50
2023-10-13T07:30:14.347Z,96491.88
2023-10-13T07:32:48.003Z,96469.50
2023-10-13T07:35:21.575Z,96489.91
2023-10-13T07:37:53.965Z,96457.91
2023-10-13T07:40:42.084Z,96505.25
2023-10-13T07:43:14.083Z,96520.00
2023-10-13T07:45:46.143Z,96516.88
2023-10-13T07:48:20.382Z,96458.19
2023-10-13T07:50:50.156Z,96461.91
2023-10-13T07:53:24.141Z,96488.91
2023-10-13T07:55:56.827Z,96500.06
2023-10-13T07:58:27.445Z,96476.38
2023-10-13T08:01:08.990Z,96432.25
2023-10-13T08:03:44.782Z,96462.69
2023-10-13T08:06:29.926Z,96439.78
2023-10-13T08:09:08.822Z,96429.72
2023-10-13T08:11:38.467Z,96446.47
2023-10-13T08:14:37.864Z,96490.63
2023-10-13T08:17:10.847Z,96455.78
2023-10-13T08:19:46.050Z,96477.84
2023-10-13T08:22:27.265Z,96466.34
2023-10-13T08:25:16.671Z,96432.22
2023-10-13T08:27:51.594Z,96471.03
2023-10-13T08:30:30.787Z,96443.34
2023-10-13T08:33:18.085Z,96439.31
2023-10-13T08:36:13.057Z,96379.81
2023-10-13T08:38:52.349Z,96397.72
2023-10-13T08:41:32.847Z,96426.63
2023-10-13T08:44:10.784Z,96411.75
2023-10-13T08:47:07.065Z,96414.66
2023-10-13T08:49:42.410Z,96432.25
2023-10-13T08:52:27.161Z,96406.06
2023-10-13T08:55:14.970Z,96433.19
2023-10-13T08:57:50.972Z,96428.38
2023-10-13T09:00:56.376Z,96406.41
2023-10-13T09:03:30.179Z,96412.63
2023-10-13T09:06:07.393Z,96392.78
2023-10-13T09:08:59.139Z,96438.97
2023-10-13T09:11:28.193Z,96414.22
2023-10-13T09:13:56.651Z,96414.44
2023-10-13T09:16:40.820Z,96446.13
2023-10-13T09:19:13.256Z,96242.56
2023-10-13T09:21:48.888Z,96395.38
2023-10-13T09:24:33.204Z,96400.34
2023-10-13T09:27:04.069Z,96415.88
2023-10-13T09:29:39.306Z,96413.75
2023-10-13T09:32:13.060Z,96418.47
2023-10-13T09:34:45.884Z,96396.47
2023-10-13T09:37:22.164Z,96435.09
2023-10-13T09:39:54.264Z,96404.88
2023-10-13T09:42:24.975Z,96411.66
2023-10-13T09:44:53.136Z,96411.16
2023-10-13T09:47:33.946Z,96350.38
2023-10-13T09:50:07.444Z,96395.56
2023-10-13T09:52:38.787Z,96316.28
2023-10-13T09:55:28.128Z,96393.31
2023-10-13T09:58:11.278Z,96414.97
2023-10-13T10:00:57.761Z,96366.66
2023-10-13T10:03:40.875Z,96388.47
2023-10-13T10:06:29.464Z,96378.63
2023-10-13T10:09:13.713Z,96324.81
2023-10-13T10:12:19.807Z,96372.94
2023-10-13T10:15:11.627Z,96460.16
2023-10-13T10:17:45.295Z,96351.59
2023-10-13T10:20:33.771Z,96313.97
2023-10-13T10:23:02.996Z,96403.84
2023-10-13T10:25:36.291Z,96382.72
2023-10-13T10:28:07.712Z,96328.19
2023-10-13T10:30:39.943Z,96400.78
2023-10-13T10:33:14.511Z,96359.44
2023-10-13T10:35:44.013Z,96406.63
2023-10-13T10:38:17.181Z,96314.28
2023-10-13T10:40:58.377Z,96182.53
2023-10-13T10:43:43.251Z,96366.34
2023-10-13T10:46:14.984Z,96194.22
2023-10-13T10:48:45.290Z,96325.72
2023-10-13T10:51:22.694Z,96329.81
2023-10-13T10:53:52.606Z,96148.38
2023-10-13T10:56:37.946Z,96345.06
2023-10-13T10:59:19.645Z,96289.38
2023-10-13T11:01:52.139Z,96303.75
2023-10-13T11:04:35.085Z,96294.59
2023-10-13T11:07:04.139Z,96242.19
2023-10-13T11:09:38.950Z,96257.88
2023-10-13T11:12:17.703Z,96288.84
2023-10-13T11:14:49.987Z,96288.84
2023-10-13T11:17:26.530Z,96255.19
2023-10-13T11:19:56.311Z,96328.03
2023-10-13T11:22:34.550Z,96286.28
2023-10-13T11:25:12.069Z,96268.78
2023-10-13T11:27:57.013Z,96221.06
2023-10-13T11:30:31.306Z,96279.84
2023-10-13T11:33:01.372Z,96284.66
2023-10-13T11:35:50.038Z,96278.75
2023-10-13T11:38:26.492Z,96245.28
2023-10-13T11:41:09.918Z,96243.63
2023-10-13T11:44:05.773Z,96183.22
2023-10-13T11:46:48.430Z,96262.94
2023-10-13T11:49:20.405Z,96231.38
2023-10-13T11:51:51.189Z,96248.88
2023-10-13T11:54:20.293Z,96221.38
2023-10-13T11:56:50.969Z,96235.44
2023-10-13T11:59:25.174Z,96225.16
2023-10-13T12:02:12.335Z,96253.72
2023-10-13T12:04:52.816Z,96248.97
2023-10-13T12:07:27.997Z,96127.97
2023-10-13T12:10:08.414Z,96229.59
2023-10-13T12:12:45.372Z,96196.72
2023-10-13T12:15:35.506Z,96235.75
2023-10-13T12:18:05.170Z,96161.47
2023-10-13T12:20:37.155Z,96221.06
2023-10-13T12:23:17.007Z,96244.50
2023-10-13T12:26:07.861Z,96184.38
2023-10-13T12:28:42.070Z,96167.66
2023-10-13T12:31:13.410Z,96162.22
2023-10-13T12:33:42.848Z,96194.34
2023-10-13T12:36:31.488Z,96180.03
2023-10-13T12:39:32.445Z,96094.31
2023-10-13T12:42:18.465Z,96167.03
2023-10-13T12:45:04.426Z,96117.88
2023-10-13T12:47:51.626Z,96186.34
2023-10-13T12:50:36.079Z,96146.28
2023-10-13T12:53:04.523Z,96154.88
2023-10-13T12:55:33.917Z,96210.53
2023-10-13T12:58:05.997Z,96144.41
2023-10-13T13:00:35.165Z,96103.25
2023-10-13T13:03:12.828Z,96142.13
2023-10-13T13:05:46.282Z,96173.13
2023-10-13T13:08:23.072Z,96119.09
2023-10-13T13:10:53.065Z,96135.66
2023-10-13T13:13:26.061Z,96158.53
2023-10-13T13:15:54.659Z,96127.75
2023-10-13T13:18:24.396Z,96155.19
2023-10-13T13:20:56.058Z,96118.00
2023-10-13T13:23:27.159Z,96162.75
2023-10-13T13:25:58.753Z,96173.38
2023-10-13T13:28:30.348Z,96127.72
2023-10-13T13:30:59.766Z,96085.84
2023-10-13T13:33:34.789Z,96134.84
2023-10-13T13:36:05.396Z,96078.19
2023-10-13T13:38:34.939Z,96113.19
2023-10-13T13:41:04.932Z,96063.75
2023-10-13T13:43:40.604Z,96116.50
2023-10-13T13:46:11.491Z,96069.41
2023-10-13T13:48:42.295Z,96075.81
2023-10-13T13:51:16.084Z,96116.19
2023-10-13T13:53:49.301Z,96083.00
2023-10-13T13:56:19.577Z,96037.91
2023-10-13T13:58:51.388Z,96053.72
2023-10-13T14:01:20.636Z,96038.75
2023-10-13T14:04:04.173Z,96087.00
2023-10-13T14:06:33.858Z,96034.03
2023-10-13T14:09:15.362Z,96012.97
2023-10-13T14:12:01.927Z,96085.09
2023-10-13T14:14:35.211Z,96045.94
2023-10-13T14:17:09.002Z,96054.31
2023-10-13T14:19:42.725Z,96059.75
2023-10-13T14:22:14.042Z,95974.41
2023-10-13T14:24:49.047Z,96042.13
2023-10-13T14:27:20.593Z,96012.72
2023-10-13T14:29:50.117Z,96069.53
2023-10-13T14:32:18.387Z,96049.88
2023-10-13T14:34:55.553Z,95964.75
2023-10-13T14:37:29.677Z,95947.25
2023-10-13T14:39:59.077Z,96000.72
2023-10-13T14:42:28.082Z,95963.03
2023-10-13T14:44:59.470Z,95998.00
2023-10-13T14:47:28.502Z,96007.69
2023-10-13T14:50:01.162Z,96003.41
2023-10-13T14:52:33.504Z,96025.66
2023-10-13T14:55:02.230Z,96014.69
2023-10-13T14:57:31.172Z,96099.19
2023-10-13T14:59:59.918Z,95988.28
2023-10-13T15:02:28.328Z,96001.63
2023-10-13T15:04:59.001Z,95959.06
2023-10-13T15:07:29.193Z,96047.84
2023-10-13T15:09:58.312Z,96042.50
2023-10-13T15:12:29.561Z,96001.81
2023-10-13T15:14:59.945Z,95988.56
2023-10-13T15:17:31.262Z,95978.91
2023-10-13T15:20:04.729Z,95983.94
2023-10-13T15:22:36.142Z,95939.03
2023-10-13T15:25:18.085Z,95963.47
2023-10-13T15:27:51.944Z,96004.19
2023-10-13T15:30:25.073Z,95969.28
2023-10-13T15:32:55.142Z,95951.56
2023-10-13T15:35:29.581Z,95984.19
2023-10-13T15:37:58.535Z,95975.84
2023-10-13T15:40:28.846Z,96000.47
2023-10-13T15:43:00.809Z,95954.53
2023-10-13T15:45:40.051Z,95955.78
2023-10-13T15:48:16.801Z,95982.59
2023-10-13T15:50:50.982Z,95954.50
2023-10-13T15:53:19.949Z,95916.81
2023-10-13T15:55:48.505Z,95955.56
2023-10-13T15:58:17.268Z,95969.59
2023-10-13T16:00:46.481Z,95903.03
2023-10-13T16:03:14.870Z,95951.25
2023-10-13T16:05:48.969Z,95962.91
2023-10-13T16:08:20.298Z,95965.84
2023-10-13T16:10:51.098Z,95922.63
2023-10-13T16:13:21.469Z,95921.41
2023-10-13T16:15:49.904Z,95957.00
2023-10-13T16:18:23.493Z,95961.66
2023-10-13T16:20:53.029Z,95976.38
2023-10-13T16:23:24.625Z,95981.78
2023-10-13T16:25:57.525Z,95948.53
2023-10-13T16:28:25.825Z,95963.66
2023-10-13T16:30:55.936Z,95988.59
2023-10-13T16:33:24.681Z,95968.69
2023-10-13T16:35:54.904Z,95898.16
2023-10-13T16:38:26.054Z,95948.31
2023-10-13T16:40:55.371Z,95966.88
2023-10-13T16:43:23.744Z,95957.44
2023-10-13T16:45:52.334Z,95937.78
2023-10-13T16:48:20.936Z,96026.63
2023-10-13T16:50:49.450Z,95955.41
2023-10-13T16:53:18.209Z,95962.66
2023-10-13T16:55:48.122Z,95945.91
2023-10-13T16:58:17.158Z,95951.25
2023-10-13T17:00:48.305Z,95930.16
2023-10-13T17:03:16.851Z,95924.53
2023-10-13T17:05:46.801Z,95980.78
2023-10-13T17:08:15.733Z,95957.13
2023-10-13T17:10:44.106Z,95936.75
2023-10-13T17:13:14.275Z,95930.72
2023-10-13T17:15:43.664Z,95923.47
2023-10-13T17:18:12.647Z,95900.88
2023-10-13T17:20:42.853Z,95945.59
2023-10-13T17:23:18.077Z,95965.88
2023-10-13T17:25:46.492Z,95917.84
2023-10-13T17:28:16.211Z,95964.06
2023-10-13T17:30:46.889Z,95893.03
2023-10-13T17:33:16.727Z,95943.22
2023-10-13T17:35:46.861Z,95965.81
2023-10-13T17:38:16.029Z,95933.97
2023-10-13T17:40:45.096Z,95911.66
2023-10-13T17:43:13.352Z,95915.72
2023-10-13T17:45:47.024Z,95950.66
2023-10-13T17:48:15.602Z,95948.72
2023-10-13T17:50:43.826Z,95902.66
2023-10-13T17:53:12.547Z,95894.06
2023-10-13T17:55:41.180Z,95950.34
2023-10-13T17:58:10.214Z,95911.69
2023-10-13T18:00:39.254Z,95937.06
2023-10-13T18:03:11.064Z,95948.81
2023-10-13T18:05:40.949Z,95931.88
2023-10-13T18:08:11.600Z,95952.78
2023-10-13T18:10:44.740Z,95965.13
2023-10-13T18:13:14.666Z,95915.22
2023-10-13T18:15:44.568Z,95916.84
2023-10-13T18:18:15.063Z,95914.19
2023-10-13T18:20:43.263Z,95939.31
2023-10-13T18:23:12.715Z,95950.91
2023-10-13T18:25:44.024Z,95930.81
2023-10-13T18:28:12.733Z,95923.16
2023-10-13T18:30:41.293Z,95903.28
2023-10-13T18:33:12.938Z,95888.31
2023-10-13T18:35:42.746Z,95899.72
2023-10-13T18:38:11.750Z,95882.69
2023-10-13T18:40:40.154Z,95934.19
2023-10-13T18:43:10.260Z,95863.81
2023-10-13T18:45:42.182Z,95879.94
2023-10-13T18:48:13.599Z,95907.34
2023-10-13T18:50:45.454Z,95947.59
2023-10-13T18:53:14.537Z,95903.28
2023-10-13T18:55:42.854Z,95908.84
2023-10-13T18:58:11.096Z,95894.59
2023-10-13T19:00:39.553Z,95935.13
2023-10-13T19:03:08.151Z,95885.81
2023-10-13T19:05:36.461Z,95887.53
2023-10-13T19:08:09.374Z,95879.88
2023-10-13T19:10:38.295Z,95871.44
2023-10-13T19:13:06.673Z,95862.38
2023-10-13T19:15:39.558Z,95905.09
2023-10-13T19:18:10.104Z,95888.41
2023-10-13T19:20:42.364Z,95906.19
2023-10-13T19:23:15.998Z,95876.00
2023-10-13T19:25:45.284Z,95820.63
2023-10-13T19:28:15.300Z,95874.50
2023-10-13T19:30:44.081Z,95869.88
2023-10-13T19:33:13.039Z,95959.09
2023-10-13T19:35:42.873Z,95844.94
2023-10-13T19:38:12.512Z,95865.34
2023-10-13T19:40:43.789Z,95890.88
2023-10-13T19:43:14.776Z,95927.28
2023-10-13T19:45:44.157Z,95872.22
2023-10-13T19:48:12.710Z,95865.63
2023-10-13T19:50:43.542Z,95827.19
2023-10-13T19:53:13.157Z,95848.09
2023-10-13T19:55:43.804Z,95857.91
2023-10-13T19:58:15.901Z,95863.72
2023-10-13T20:00:44.456Z,95875.34
2023-10-13T20:03:14.420Z,95850.94
2023-10-13T20:05:44.516Z,95885.75
2023-10-13T20:08:14.178Z,95874.47
2023-10-13T20:10:42.736Z,95866.47
2023-10-13T20:13:12.115Z,95898.50
2023-10-13T20:15:42.763Z,95860.94
2023-10-13T20:18:11.302Z,95881.38
2023-10-13T20:20:45.079Z,95878.09
2023-10-13T20:23:15.668Z,95865.09
2023-10-13T20:25:45.494Z,95886.13
2023-10-13T20:28:15.244Z,95858.03
2023-10-13T20:30:45.573Z,95860.13
2023-10-13T20:33:14.742Z,95859.56
2023-10-13T20:35:52.329Z,95840.38
2023-10-13T20:38:23.958Z,95861.56
2023-10-13T20:41:01.399Z,95849.75
2023-10-13T20:43:30.603Z,95880.47
2023-10-13T20:46:00.081Z,95696.00
2023-10-13T20:48:32.326Z,95676.44
2023-10-13T20:51:01.614Z,95841.50
2023-10-13T20:53:31.392Z,95868.06
2023-10-13T20:56:01.872Z,95820.41
2023-10-13T20:58:30.810Z,95888.56
2023-10-13T21:00:59.294Z,95854.81
2023-10-13T21:03:28.146Z,95812.53
2023-10-13T21:05:59.622Z,95820.75
2023-10-13T21:08:27.902Z,95789.13
2023-10-13T21:11:02.093Z,95838.59
2023-10-13T21:13:30.767Z,95833.53
2023-10-13T21:16:01.706Z,95837.81
2023-10-13T21:18:30.690Z,95838.25
2023-10-13T21:21:08.228Z,95835.69
2023-10-13T21:23:36.781Z,95869.31
2023-10-13T21:26:07.360Z,95846.84
2023-10-13T21:28:35.665Z,95818.78
2023-10-13T21:31:08.562Z,95819.25
2023-10-13T21:33:36.949Z,95830.25
2023-10-13T21:36:14.644Z,96151.22
2023-10-13T21:38:46.593Z,95740.34
2023-10-13T21:41:22.311Z,95842.44
2023-10-13T21:43:54.703Z,95855.78
2023-10-13T21:46:25.599Z,95810.91
2023-10-13T21:48:55.315Z,95823.22
2023-10-13T21:51:25.826Z,95849.38
2023-10-13T21:53:54.777Z,95852.75
2023-10-13T21:56:29.687Z,95776.53
2023-10-13T21:58:59.026Z,95823.31
2023-10-13T22:01:30.013Z,95832.97
2023-10-13T22:04:10.297Z,95820.69
2023-10-13T22:06:47.235Z,95866.28
2023-10-13T22:09:16.251Z,95850.53
2023-10-13T22:11:45.916Z,95812.63
2023-10-13T22:14:17.643Z,95782.72
2023-10-13T22:16:46.175Z,95783.06
2023-10-13T22:19:15.156Z,95847.69
2023-10-13T22:21:43.474Z,95800.66
2023-10-13T22:24:14.757Z,95790.34
2023-10-13T22:26:44.589Z,95829.59
2023-10-13T22:29:15.914Z,95835.72
2023-10-13T22:31:44.505Z,95796.94
2023-10-13T22:34:13.516Z,95804.47
2023-10-13T22:36:55.206Z,95802.25
2023-10-13T22:39:34.964Z,95825.41
2023-10-13T22:42:03.822Z,95792.41
2023-10-13T22:44:34.272Z,95864.88
2023-10-13T22:47:04.554Z,95852.28
2023-10-13T22:49:33.726Z,95797.75
2023-10-13T22:52:03.903Z,95631.44
2023-10-13T22:54:32.410Z,95847.59
2023-10-13T22:57:01.981Z,95801.91
2023-10-13T22:59:31.293Z,95890.41
2023-10-13T23:02:00.932Z,95849.59
2023-10-13T23:04:29.752Z,95784.16
2023-10-13T23:07:00.422Z,95849.97
2023-10-13T23:09:29.154Z,95856.06
2023-10-13T23:12:05.701Z,95843.94
2023-10-13T23:14:34.691Z,95824.44
2023-10-13T23:17:04.904Z,95723.13
2023-10-13T23:19:36.403Z,95808.63
2023-10-13T23:22:07.176Z,95797.72
2023-10-13T23:24:38.491Z,95849.13
2023-10-13T23:27:07.050Z,95821.66
2023-10-13T23:29:37.994Z,95780.84
2023-10-13T23:32:08.763Z,95856.94
2023-10-13T23:34:37.428Z,95836.94
2023-10-13T23:37:11.737Z,95815.72
2023-10-13T23:39:40.733Z,95847.41
2023-10-13T23:42:19.968Z,95854.03
2023-10-13T23:44:48.762Z,95822.81
2023-10-13T23:47:29.097Z,95817.34
2023-10-13T23:49:59.581Z,95817.56
2023-10-13T23:52:33.317Z,95839.31
2023-10-13T23:55:06.821Z,95798.84
2023-10-13T23:57:43.037Z,95818.06
